sensor_id;sensor_type;location;lat;lon;timestamp;pressure;altitude;pressure_sealevel;temperature;humidity
17593;BME280;8915;51.760;14.300;2023-07-22T00:01:44;100523.09;;;15.09;73.40
17593;BME280;8915;51.760;14.300;2023-07-22T00:04:11;100520.03;;;15.07;73.63
17593;BME280;8915;51.760;14.300;2023-07-22T00:06:38;100524.16;;;15.04;73.74
17593;BME280;8915;51.760;14.300;2023-07-22T00:09:05;100529.44;;;15.01;73.14
17593;BME280;8915;51.760;14.300;2023-07-22T00:11:32;100519.94;;;15.00;74.07
17593;BME280;8915;51.760;14.300;2023-07-22T00:13:59;100524.06;;;14.97;74.82
17593;BME280;8915;51.760;14.300;2023-07-22T00:16:27;100529.75;;;14.96;74.13
17593;BME280;8915;51.760;14.300;2023-07-22T00:18:57;100541.50;;;14.95;74.30
17593;BME280;8915;51.760;14.300;2023-07-22T00:21:27;100536.19;;;14.95;74.51
17593;BME280;8915;51.760;14.300;2023-07-22T00:23:54;100534.63;;;14.94;75.42
17593;BME280;8915;51.760;14.300;2023-07-22T00:26:21;100534.22;;;14.92;75.13
17593;BME280;8915;51.760;14.300;2023-07-22T00:28:48;100526.94;;;14.89;74.78
17593;BME280;8915;51.760;14.300;2023-07-22T00:31:16;100538.69;;;14.88;75.22
17593;BME280;8915;51.760;14.300;2023-07-22T00:33:43;100541.66;;;14.83;74.87
17593;BME280;8915;51.760;14.300;2023-07-22T00:36:10;100538.16;;;14.79;74.53
17593;BME280;8915;51.760;14.300;2023-07-22T00:38:37;100546.84;;;14.76;75.10
17593;BME280;8915;51.760;14.300;2023-07-22T00:41:03;100535.44;;;14.75;74.80
17593;BME280;8915;51.760;14.300;2023-07-22T00:43:31;100542.28;;;14.76;75.26
17593;BME280;8915;51.760;14.300;2023-07-22T00:46:00;100539.59;;;14.73;75.29
17593;BME280;8915;51.760;14.300;2023-07-22T00:48:31;100532.72;;;14.72;75.77
17593;BME280;8915;51.760;14.300;2023-07-22T00:50:58;100538.78;;;14.69;75.28
17593;BME280;8915;51.760;14.300;2023-07-22T00:53:26;100537.59;;;14.66;75.89
17593;BME280;8915;51.760;14.300;2023-07-22T00:55:54;100528.44;;;14.64;75.19
17593;BME280;8915;51.760;14.300;2023-07-22T00:58:21;100534.09;;;14.62;75.55
17593;BME280;8915;51.760;14.300;2023-07-22T01:00:47;100537.09;;;14.61;75.61
17593;BME280;8915;51.760;14.300;2023-07-22T01:03:14;100534.38;;;14.57;75.54
17593;BME280;8915;51.760;14.300;2023-07-22T01:05:43;100541.91;;;14.55;75.82
17593;BME280;8915;51.760;14.300;2023-07-22T01:08:10;100541.91;;;14.55;76.19
17593;BME280;8915;51.760;14.300;2023-07-22T01:10:37;100539.63;;;14.54;75.94
17593;BME280;8915;51.760;14.300;2023-07-22T01:13:03;100543.03;;;14.54;75.63
17593;BME280;8915;51.760;14.300;2023-07-22T01:15:31;100538.50;;;14.55;76.14
17593;BME280;8915;51.760;14.300;2023-07-22T01:17:58;100540.81;;;14.56;76.76
17593;BME280;8915;51.760;14.300;2023-07-22T01:20:27;100543.88;;;14.58;76.17
17593;BME280;8915;51.760;14.300;2023-07-22T01:22:58;100545.84;;;14.61;76.28
17593;BME280;8915;51.760;14.300;2023-07-22T01:25:28;100548.22;;;14.66;77.21
17593;BME280;8915;51.760;14.300;2023-07-22T01:27:55;100547.94;;;14.71;76.37
17593;BME280;8915;51.760;14.300;2023-07-22T01:30:21;100539.63;;;14.76;76.26
17593;BME280;8915;51.760;14.300;2023-07-22T01:32:48;100537.81;;;14.80;76.31
17593;BME280;8915;51.760;14.300;2023-07-22T01:35:18;100531.44;;;14.85;75.91
17593;BME280;8915;51.760;14.300;2023-07-22T01:37:47;100531.91;;;14.90;76.50
17593;BME280;8915;51.760;14.300;2023-07-22T01:40:15;100528.56;;;14.93;75.91
17593;BME280;8915;51.760;14.300;2023-07-22T01:42:43;100538.47;;;14.96;76.34
17593;BME280;8915;51.760;14.300;2023-07-22T01:45:13;100526.34;;;14.99;76.19
17593;BME280;8915;51.760;14.300;2023-07-22T01:47:39;100530.97;;;15.02;76.70
17593;BME280;8915;51.760;14.300;2023-07-22T01:50:07;100538.25;;;15.05;76.02
17593;BME280;8915;51.760;14.300;2023-07-22T01:52:35;100536.00;;;15.07;75.58
17593;BME280;8915;51.760;14.300;2023-07-22T01:55:06;100547.47;;;15.11;75.49
17593;BME280;8915;51.760;14.300;2023-07-22T01:57:38;100550.16;;;15.14;76.25
17593;BME280;8915;51.760;14.300;2023-07-22T02:00:06;100536.13;;;15.17;76.00
17593;BME280;8915;51.760;14.300;2023-07-22T02:02:39;100547.22;;;15.19;75.99
17593;BME280;8915;51.760;14.300;2023-07-22T02:05:08;100551.41;;;15.20;75.78
17593;BME280;8915;51.760;14.300;2023-07-22T02:07:41;100548.75;;;15.20;76.02
17593;BME280;8915;51.760;14.300;2023-07-22T02:10:10;100554.41;;;15.19;75.19
17593;BME280;8915;51.760;14.300;2023-07-22T02:12:38;100547.91;;;15.16;75.80
17593;BME280;8915;51.760;14.300;2023-07-22T02:15:06;100553.53;;;15.11;74.80
17593;BME280;8915;51.760;14.300;2023-07-22T02:17:33;100556.53;;;15.10;75.76
17593;BME280;8915;51.760;14.300;2023-07-22T02:20:00;100559.94;;;15.07;75.41
17593;BME280;8915;51.760;14.300;2023-07-22T02:22:35;100565.94;;;15.04;75.37
17593;BME280;8915;51.760;14.300;2023-07-22T02:25:02;100552.59;;;15.00;75.19
17593;BME280;8915;51.760;14.300;2023-07-22T02:27:35;100555.19;;;14.97;75.49
17593;BME280;8915;51.760;14.300;2023-07-22T02:30:04;100551.75;;;14.96;75.72
17593;BME280;8915;51.760;14.300;2023-07-22T02:32:30;100552.47;;;14.93;75.64
17593;BME280;8915;51.760;14.300;2023-07-22T02:34:57;100553.53;;;14.89;76.19
17593;BME280;8915;51.760;14.300;2023-07-22T02:37:24;100565.63;;;14.86;76.41
17593;BME280;8915;51.760;14.300;2023-07-22T02:39:53;100576.66;;;14.85;76.40
17593;BME280;8915;51.760;14.300;2023-07-22T02:42:20;100567.50;;;14.82;75.94
17593;BME280;8915;51.760;14.300;2023-07-22T02:44:47;100573.91;;;14.81;76.45
17593;BME280;8915;51.760;14.300;2023-07-22T02:47:15;100575.03;;;14.80;76.02
17593;BME280;8915;51.760;14.300;2023-07-22T02:49:42;100575.38;;;14.79;76.05
17593;BME280;8915;51.760;14.300;2023-07-22T02:52:08;100575.75;;;14.77;75.72
17593;BME280;8915;51.760;14.300;2023-07-22T02:54:42;100582.53;;;14.75;75.18
17593;BME280;8915;51.760;14.300;2023-07-22T02:57:30;100587.13;;;14.78;76.12
17593;BME280;8915;51.760;14.300;2023-07-22T03:00:20;100591.69;;;14.77;75.96
17593;BME280;8915;51.760;14.300;2023-07-22T03:02:58;100597.78;;;14.78;75.98
17593;BME280;8915;51.760;14.300;2023-07-22T03:05:40;100598.50;;;14.75;76.74
17593;BME280;8915;51.760;14.300;2023-07-22T03:08:15;100609.13;;;14.75;76.54
17593;BME280;8915;51.760;14.300;2023-07-22T03:11:02;100608.69;;;14.73;77.12
17593;BME280;8915;51.760;14.300;2023-07-22T03:13:35;100609.81;;;14.72;76.96
17593;BME280;8915;51.760;14.300;2023-07-22T03:16:02;100618.50;;;14.69;76.88
17593;BME280;8915;51.760;14.300;2023-07-22T03:18:34;100608.22;;;14.67;76.78
17593;BME280;8915;51.760;14.300;2023-07-22T03:21:09;100621.06;;;14.65;76.55
17593;BME280;8915;51.760;14.300;2023-07-22T03:24:00;100625.56;;;14.61;76.49
17593;BME280;8915;51.760;14.300;2023-07-22T03:26:40;100634.66;;;14.60;76.82
17593;BME280;8915;51.760;14.300;2023-07-22T03:29:35;100639.91;;;14.57;77.70
17593;BME280;8915;51.760;14.300;2023-07-22T03:32:21;100636.91;;;14.58;77.76
17593;BME280;8915;51.760;14.300;2023-07-22T03:34:56;100639.16;;;14.56;76.92
17593;BME280;8915;51.760;14.300;2023-07-22T03:37:32;100633.72;;;14.53;77.14
17593;BME280;8915;51.760;14.300;2023-07-22T03:40:14;100638.72;;;14.54;77.48
17593;BME280;8915;51.760;14.300;2023-07-22T03:42:51;100644.03;;;14.54;76.63
17593;BME280;8915;51.760;14.300;2023-07-22T03:45:30;100645.56;;;14.55;77.14
17593;BME280;8915;51.760;14.300;2023-07-22T03:48:15;100649.00;;;14.56;77.11
17593;BME280;8915;51.760;14.300;2023-07-22T03:54:09;100652.44;;;14.56;77.69
17593;BME280;8915;51.760;14.300;2023-07-22T03:56:42;100661.16;;;14.57;77.87
17593;BME280;8915;51.760;14.300;2023-07-22T03:59:22;100663.06;;;14.56;77.57
17593;BME280;8915;51.760;14.300;2023-07-22T04:01:58;100665.78;;;14.60;77.68
17593;BME280;8915;51.760;14.300;2023-07-22T04:05:08;100672.63;;;14.61;77.70
17593;BME280;8915;51.760;14.300;2023-07-22T04:07:46;100677.25;;;14.64;77.69
17593;BME280;8915;51.760;14.300;2023-07-22T04:10:23;100677.31;;;14.67;77.80
17593;BME280;8915;51.760;14.300;2023-07-22T04:13:10;100677.38;;;14.71;77.47
17593;BME280;8915;51.760;14.300;2023-07-22T04:15:53;100676.34;;;14.75;78.02
17593;BME280;8915;51.760;14.300;2023-07-22T04:18:24;100669.97;;;14.80;77.76
17593;BME280;8915;51.760;14.300;2023-07-22T04:21:05;100673.09;;;14.85;77.44
17593;BME280;8915;51.760;14.300;2023-07-22T04:23:49;100670.50;;;14.89;77.33
17593;BME280;8915;51.760;14.300;2023-07-22T04:26:27;100679.78;;;14.95;76.68
17593;BME280;8915;51.760;14.300;2023-07-22T04:29:16;100674.56;;;15.02;76.56
17593;BME280;8915;51.760;14.300;2023-07-22T04:31:49;100689.19;;;15.11;76.97
17593;BME280;8915;51.760;14.300;2023-07-22T04:34:23;100688.19;;;15.19;75.64
17593;BME280;8915;51.760;14.300;2023-07-22T04:37:15;100692.69;;;15.34;76.57
17593;BME280;8915;51.760;14.300;2023-07-22T04:40:01;100692.16;;;15.48;75.92
17593;BME280;8915;51.760;14.300;2023-07-22T04:42:40;100695.81;;;15.62;76.21
17593;BME280;8915;51.760;14.300;2023-07-22T04:45:12;100698.69;;;15.76;75.79
17593;BME280;8915;51.760;14.300;2023-07-22T04:47:45;100704.25;;;15.90;74.79
17593;BME280;8915;51.760;14.300;2023-07-22T04:50:25;100712.50;;;16.08;74.87
17593;BME280;8915;51.760;14.300;2023-07-22T04:53:01;100706.63;;;16.21;74.28
17593;BME280;8915;51.760;14.300;2023-07-22T04:55:54;100710.19;;;16.32;73.39
17593;BME280;8915;51.760;14.300;2023-07-22T04:58:29;100703.44;;;16.38;73.13
17593;BME280;8915;51.760;14.300;2023-07-22T05:01:02;100717.66;;;16.46;72.96
17593;BME280;8915;51.760;14.300;2023-07-22T05:04:01;100722.66;;;16.51;72.36
17593;BME280;8915;51.760;14.300;2023-07-22T05:06:42;100729.56;;;16.55;72.02
17593;BME280;8915;51.760;14.300;2023-07-22T05:09:13;100732.22;;;16.55;71.35
17593;BME280;8915;51.760;14.300;2023-07-22T05:11:50;100739.88;;;16.57;70.85
17593;BME280;8915;51.760;14.300;2023-07-22T05:14:29;100739.47;;;16.55;70.67
17593;BME280;8915;51.760;14.300;2023-07-22T05:16:58;100729.22;;;16.57;70.88
17593;BME280;8915;51.760;14.300;2023-07-22T05:19:30;100739.53;;;16.58;70.33
17593;BME280;8915;51.760;14.300;2023-07-22T05:22:22;100728.53;;;16.63;70.48
17593;BME280;8915;51.760;14.300;2023-07-22T05:24:52;100728.22;;;16.68;69.60
17593;BME280;8915;51.760;14.300;2023-07-22T05:27:24;100726.34;;;16.72;69.00
17593;BME280;8915;51.760;14.300;2023-07-22T05:30:01;100723.00;;;16.79;68.70
17593;BME280;8915;51.760;14.300;2023-07-22T05:32:35;100726.88;;;16.85;68.68
17593;BME280;8915;51.760;14.300;2023-07-22T05:35:02;100729.97;;;16.87;67.79
17593;BME280;8915;51.760;14.300;2023-07-22T05:37:33;100737.28;;;16.93;67.65
17593;BME280;8915;51.760;14.300;2023-07-22T05:40:02;100740.41;;;16.99;68.31
17593;BME280;8915;51.760;14.300;2023-07-22T05:42:30;100744.28;;;17.05;67.75
17593;BME280;8915;51.760;14.300;2023-07-22T05:45:09;100737.44;;;17.07;67.22
17593;BME280;8915;51.760;14.300;2023-07-22T05:47:43;100737.13;;;17.12;67.29
17593;BME280;8915;51.760;14.300;2023-07-22T05:50:10;100758.88;;;17.14;66.23
17593;BME280;8915;51.760;14.300;2023-07-22T05:52:45;100741.78;;;17.19;66.10
17593;BME280;8915;51.760;14.300;2023-07-22T05:55:16;100746.78;;;17.24;65.84
17593;BME280;8915;51.760;14.300;2023-07-22T05:57:44;100751.78;;;17.29;65.65
17593;BME280;8915;51.760;14.300;2023-07-22T06:00:12;100744.19;;;17.31;65.86
17593;BME280;8915;51.760;14.300;2023-07-22T06:02:47;100746.16;;;17.37;65.51
17593;BME280;8915;51.760;14.300;2023-07-22T06:05:15;100749.69;;;17.45;65.49
17593;BME280;8915;51.760;14.300;2023-07-22T06:07:45;100764.63;;;17.53;65.44
17593;BME280;8915;51.760;14.300;2023-07-22T06:10:11;100752.09;;;17.57;65.18
17593;BME280;8915;51.760;14.300;2023-07-22T06:12:40;100763.94;;;17.59;63.99
17593;BME280;8915;51.760;14.300;2023-07-22T06:15:11;100768.22;;;17.67;64.26
17593;BME280;8915;51.760;14.300;2023-07-22T06:17:40;100761.03;;;17.75;64.76
17593;BME280;8915;51.760;14.300;2023-07-22T06:20:13;100759.53;;;17.77;63.90
17593;BME280;8915;51.760;14.300;2023-07-22T06:22:42;100759.22;;;17.86;63.75
17593;BME280;8915;51.760;14.300;2023-07-22T06:25:13;100757.75;;;17.92;63.42
17593;BME280;8915;51.760;14.300;2023-07-22T06:27:43;100767.31;;;17.96;63.15
17593;BME280;8915;51.760;14.300;2023-07-22T06:30:12;100762.03;;;18.03;63.54
17593;BME280;8915;51.760;14.300;2023-07-22T06:32:41;100760.56;;;18.09;62.67
17593;BME280;8915;51.760;14.300;2023-07-22T06:35:12;100767.47;;;18.17;61.71
17593;BME280;8915;51.760;14.300;2023-07-22T06:37:41;100771.75;;;18.25;62.02
17593;BME280;8915;51.760;14.300;2023-07-22T06:40:10;100764.22;;;18.34;62.44
17593;BME280;8915;51.760;14.300;2023-07-22T06:42:39;100771.13;;;18.46;62.02
17593;BME280;8915;51.760;14.300;2023-07-22T06:45:09;100758.97;;;18.55;61.25
17593;BME280;8915;51.760;14.300;2023-07-22T06:47:40;100769.34;;;18.67;60.70
17593;BME280;8915;51.760;14.300;2023-07-22T06:50:14;100768.63;;;18.77;61.17
17593;BME280;8915;51.760;14.300;2023-07-22T06:52:46;100767.50;;;18.82;59.46
17593;BME280;8915;51.760;14.300;2023-07-22T06:55:13;100773.28;;;18.87;60.10
17593;BME280;8915;51.760;14.300;2023-07-22T06:57:40;100777.84;;;18.87;58.65
17593;BME280;8915;51.760;14.300;2023-07-22T07:00:08;100779.78;;;18.86;58.74
17593;BME280;8915;51.760;14.300;2023-07-22T07:02:38;100772.91;;;18.92;59.88
17593;BME280;8915;51.760;14.300;2023-07-22T07:05:06;100775.22;;;18.97;58.10
17593;BME280;8915;51.760;14.300;2023-07-22T07:07:36;100774.88;;;19.06;57.56
17593;BME280;8915;51.760;14.300;2023-07-22T07:10:07;100771.47;;;19.16;59.08
17593;BME280;8915;51.760;14.300;2023-07-22T07:12:34;100787.53;;;19.16;57.24
17593;BME280;8915;51.760;14.300;2023-07-22T07:15:07;100779.94;;;19.21;56.84
17593;BME280;8915;51.760;14.300;2023-07-22T07:17:37;100783.00;;;19.34;56.60
17593;BME280;8915;51.760;14.300;2023-07-22T07:20:06;100778.47;;;19.45;56.88
17593;BME280;8915;51.760;14.300;2023-07-22T07:22:33;100784.63;;;19.56;57.41
17593;BME280;8915;51.760;14.300;2023-07-22T07:25:10;100802.22;;;19.60;56.31
17593;BME280;8915;51.760;14.300;2023-07-22T07:27:37;100789.97;;;19.63;55.59
17593;BME280;8915;51.760;14.300;2023-07-22T07:30:12;100789.59;;;19.64;55.55
17593;BME280;8915;51.760;14.300;2023-07-22T07:32:39;100794.97;;;19.68;54.71
17593;BME280;8915;51.760;14.300;2023-07-22T07:35:09;100798.03;;;19.80;55.86
17593;BME280;8915;51.760;14.300;2023-07-22T07:37:37;100794.97;;;19.85;54.35
17593;BME280;8915;51.760;14.300;2023-07-22T07:40:04;100803.41;;;19.84;53.97
17593;BME280;8915;51.760;14.300;2023-07-22T07:42:31;100811.47;;;19.98;53.58
17593;BME280;8915;51.760;14.300;2023-07-22T07:44:57;100796.13;;;19.95;52.92
17593;BME280;8915;51.760;14.300;2023-07-22T07:47:27;100802.25;;;20.06;54.09
17593;BME280;8915;51.760;14.300;2023-07-22T07:49:53;100809.56;;;20.09;53.79
17593;BME280;8915;51.760;14.300;2023-07-22T07:52:22;100812.63;;;20.07;51.81
17593;BME280;8915;51.760;14.300;2023-07-22T07:54:49;100809.97;;;20.14;53.22
17593;BME280;8915;51.760;14.300;2023-07-22T07:57:16;100806.13;;;20.19;52.35
17593;BME280;8915;51.760;14.300;2023-07-22T07:59:42;100815.31;;;20.25;52.67
17593;BME280;8915;51.760;14.300;2023-07-22T08:02:09;100816.06;;;20.32;50.68
17593;BME280;8915;51.760;14.300;2023-07-22T08:04:35;100811.09;;;20.38;51.17
17593;BME280;8915;51.760;14.300;2023-07-22T08:07:02;100819.09;;;20.52;51.60
17593;BME280;8915;51.760;14.300;2023-07-22T08:09:31;100824.06;;;20.60;51.95
17593;BME280;8915;51.760;14.300;2023-07-22T08:11:57;100816.38;;;20.69;50.96
17593;BME280;8915;51.760;14.300;2023-07-22T08:14:24;100824.78;;;20.82;51.01
17593;BME280;8915;51.760;14.300;2023-07-22T08:16:50;100824.78;;;20.85;49.98
17593;BME280;8915;51.760;14.300;2023-07-22T08:19:17;100816.72;;;20.85;49.87
17593;BME280;8915;51.760;14.300;2023-07-22T08:21:43;100823.28;;;20.81;50.65
17593;BME280;8915;51.760;14.300;2023-07-22T08:24:10;100820.19;;;20.79;48.56
17593;BME280;8915;51.760;14.300;2023-07-22T08:26:37;100822.13;;;20.92;50.22
17593;BME280;8915;51.760;14.300;2023-07-22T08:29:05;100828.97;;;21.00;48.53
17593;BME280;8915;51.760;14.300;2023-07-22T08:31:31;100838.16;;;21.10;49.25
17593;BME280;8915;51.760;14.300;2023-07-22T08:33:58;100834.34;;;21.07;48.63
17593;BME280;8915;51.760;14.300;2023-07-22T08:36:24;100833.50;;;21.17;47.99
17593;BME280;8915;51.760;14.300;2023-07-22T08:38:51;100832.75;;;21.20;47.55
17593;BME280;8915;51.760;14.300;2023-07-22T08:41:17;100833.91;;;21.19;48.02
17593;BME280;8915;51.760;14.300;2023-07-22T08:43:46;100842.31;;;21.25;47.37
17593;BME280;8915;51.760;14.300;2023-07-22T08:46:15;100847.28;;;21.26;47.77
17593;BME280;8915;51.760;14.300;2023-07-22T08:48:46;100838.91;;;21.21;47.46
17593;BME280;8915;51.760;14.300;2023-07-22T08:51:15;100841.16;;;21.29;48.34
17593;BME280;8915;51.760;14.300;2023-07-22T08:53:43;100841.56;;;21.21;45.85
17593;BME280;8915;51.760;14.300;2023-07-22T08:56:10;100840.38;;;21.29;47.10
17593;BME280;8915;51.760;14.300;2023-07-22T08:58:37;100847.66;;;21.32;45.06
17593;BME280;8915;51.760;14.300;2023-07-22T09:01:06;100845.66;;;21.46;46.82
17593;BME280;8915;51.760;14.300;2023-07-22T09:03:33;100839.84;;;21.62;45.57
17593;BME280;8915;51.760;14.300;2023-07-22T09:06:00;100837.47;;;21.78;47.64
17593;BME280;8915;51.760;14.300;2023-07-22T09:08:27;100844.72;;;21.81;44.85
17593;BME280;8915;51.760;14.300;2023-07-22T09:10:53;100841.94;;;21.95;45.24
17593;BME280;8915;51.760;14.300;2023-07-22T09:13:21;100834.16;;;22.07;43.43
17593;BME280;8915;51.760;14.300;2023-07-22T09:15:48;100848.72;;;22.13;43.29
17593;BME280;8915;51.760;14.300;2023-07-22T09:18:16;100841.47;;;22.07;42.78
17593;BME280;8915;51.760;14.300;2023-07-22T09:20:43;100838.38;;;22.08;44.66
17593;BME280;8915;51.760;14.300;2023-07-22T09:23:09;100845.63;;;22.15;42.24
17593;BME280;8915;51.760;14.300;2023-07-22T09:25:37;100835.63;;;22.15;42.75
17593;BME280;8915;51.760;14.300;2023-07-22T09:28:04;100835.97;;;22.21;43.43
17593;BME280;8915;51.760;14.300;2023-07-22T09:30:32;100836.03;;;22.14;41.38
17593;BME280;8915;51.760;14.300;2023-07-22T09:33:01;100839.50;;;22.11;43.37
17593;BME280;8915;51.760;14.300;2023-07-22T09:35:30;100847.22;;;22.09;42.98
17593;BME280;8915;51.760;14.300;2023-07-22T09:37:58;100843.75;;;22.08;42.66
17593;BME280;8915;51.760;14.300;2023-07-22T09:40:26;100845.44;;;21.88;42.71
17593;BME280;8915;51.760;14.300;2023-07-22T09:42:55;100843.84;;;21.94;42.66
17593;BME280;8915;51.760;14.300;2023-07-22T09:45:23;100844.28;;;21.93;42.24
17593;BME280;8915;51.760;14.300;2023-07-22T09:47:52;100851.22;;;21.87;43.03
17593;BME280;8915;51.760;14.300;2023-07-22T09:50:20;100850.44;;;21.90;42.95
17593;BME280;8915;51.760;14.300;2023-07-22T09:52:49;100838.91;;;21.89;43.01
17593;BME280;8915;51.760;14.300;2023-07-22T09:55:18;100836.88;;;22.04;43.06
17593;BME280;8915;51.760;14.300;2023-07-22T09:57:46;100847.94;;;22.16;41.49
17593;BME280;8915;51.760;14.300;2023-07-22T10:00:14;100842.84;;;22.25;42.32
17593;BME280;8915;51.760;14.300;2023-07-22T10:02:42;100839.41;;;22.25;41.47
17593;BME280;8915;51.760;14.300;2023-07-22T10:05:15;100852.84;;;22.25;41.72
17593;BME280;8915;51.760;14.300;2023-07-22T10:07:47;100840.88;;;22.33;41.57
17593;BME280;8915;51.760;14.300;2023-07-22T10:10:17;100844.75;;;22.28;40.89
17593;BME280;8915;51.760;14.300;2023-07-22T10:12:44;100840.19;;;22.22;39.97
17593;BME280;8915;51.760;14.300;2023-07-22T10:15:11;100843.28;;;22.20;40.49
17593;BME280;8915;51.760;14.300;2023-07-22T10:17:39;100848.25;;;22.22;41.07
17593;BME280;8915;51.760;14.300;2023-07-22T10:20:07;100847.06;;;22.30;41.29
17593;BME280;8915;51.760;14.300;2023-07-22T10:22:36;100838.88;;;22.40;41.93
17593;BME280;8915;51.760;14.300;2023-07-22T10:25:04;100842.91;;;22.62;40.69
17593;BME280;8915;51.760;14.300;2023-07-22T10:27:34;100834.22;;;22.85;39.65
17593;BME280;8915;51.760;14.300;2023-07-22T10:30:02;100837.50;;;23.03;39.14
17593;BME280;8915;51.760;14.300;2023-07-22T10:32:33;100839.69;;;23.11;39.72
17593;BME280;8915;51.760;14.300;2023-07-22T10:35:00;100837.59;;;23.26;39.64
17593;BME280;8915;51.760;14.300;2023-07-22T10:37:29;100842.50;;;23.34;38.94
17593;BME280;8915;51.760;14.300;2023-07-22T10:39:59;100837.16;;;23.31;37.65
17593;BME280;8915;51.760;14.300;2023-07-22T10:42:25;100843.22;;;23.38;38.35
17593;BME280;8915;51.760;14.300;2023-07-22T10:44:53;100835.97;;;23.36;36.60
17593;BME280;8915;51.760;14.300;2023-07-22T10:47:31;100833.84;;;23.20;37.91
17593;BME280;8915;51.760;14.300;2023-07-22T10:50:05;100838.81;;;23.22;38.87
17593;BME280;8915;51.760;14.300;2023-07-22T10:52:40;100829.53;;;23.26;38.69
17593;BME280;8915;51.760;14.300;2023-07-22T10:55:14;100839.50;;;23.29;39.17
17593;BME280;8915;51.760;14.300;2023-07-22T10:57:47;100839.19;;;23.23;38.50
17593;BME280;8915;51.760;14.300;2023-07-22T11:00:19;100835.75;;;23.19;38.58
17593;BME280;8915;51.760;14.300;2023-07-22T11:02:47;100832.94;;;23.30;37.98
17593;BME280;8915;51.760;14.300;2023-07-22T11:05:47;100838.59;;;23.39;37.81
17593;BME280;8915;51.760;14.300;2023-07-22T11:08:13;100843.28;;;23.35;37.71
17593;BME280;8915;51.760;14.300;2023-07-22T11:10:52;100843.72;;;23.30;38.55
17593;BME280;8915;51.760;14.300;2023-07-22T11:13:26;100836.31;;;23.38;38.41
17593;BME280;8915;51.760;14.300;2023-07-22T11:15:57;100830.06;;;23.44;39.24
17593;BME280;8915;51.760;14.300;2023-07-22T11:18:35;100834.22;;;23.48;39.30
17593;BME280;8915;51.760;14.300;2023-07-22T11:21:02;100836.47;;;23.53;39.55
17593;BME280;8915;51.760;14.300;2023-07-22T11:23:28;100830.41;;;23.46;38.20
17593;BME280;8915;51.760;14.300;2023-07-22T11:25:54;100832.25;;;23.52;39.13
17593;BME280;8915;51.760;14.300;2023-07-22T11:28:21;100826.69;;;23.63;38.78
17593;BME280;8915;51.760;14.300;2023-07-22T11:30:47;100822.34;;;23.73;38.13
17593;BME280;8915;51.760;14.300;2023-07-22T11:33:15;100824.66;;;23.70;37.55
17593;BME280;8915;51.760;14.300;2023-07-22T11:35:42;100822.09;;;23.63;37.11
17593;BME280;8915;51.760;14.300;2023-07-22T11:38:11;100822.47;;;23.62;37.72
17593;BME280;8915;51.760;14.300;2023-07-22T11:40:38;100829.16;;;23.54;37.22
17593;BME280;8915;51.760;14.300;2023-07-22T11:43:05;100818.47;;;23.47;38.67
17593;BME280;8915;51.760;14.300;2023-07-22T11:45:32;100822.50;;;23.32;39.12
17593;BME280;8915;51.760;14.300;2023-07-22T11:47:58;100816.88;;;23.23;38.30
17593;BME280;8915;51.760;14.300;2023-07-22T11:50:32;100819.03;;;23.01;37.30
17593;BME280;8915;51.760;14.300;2023-07-22T11:52:59;100816.88;;;22.89;39.47
17593;BME280;8915;51.760;14.300;2023-07-22T11:55:26;100823.34;;;22.95;38.77
17593;BME280;8915;51.760;14.300;2023-07-22T11:57:52;100817.19;;;22.95;38.35
17593;BME280;8915;51.760;14.300;2023-07-22T12:00:20;100813.53;;;23.08;38.57
17593;BME280;8915;51.760;14.300;2023-07-22T12:02:46;100812.41;;;23.09;36.95
17593;BME280;8915;51.760;14.300;2023-07-22T12:05:21;100815.31;;;23.26;37.79
17593;BME280;8915;51.760;14.300;2023-07-22T12:07:49;100816.59;;;23.44;38.77
17593;BME280;8915;51.760;14.300;2023-07-22T12:10:15;100810.97;;;23.62;38.52
17593;BME280;8915;51.760;14.300;2023-07-22T12:12:44;100808.25;;;23.62;36.01
17593;BME280;8915;51.760;14.300;2023-07-22T12:15:12;100807.81;;;23.67;36.44
17593;BME280;8915;51.760;14.300;2023-07-22T12:17:47;100813.53;;;23.68;36.59
17593;BME280;8915;51.760;14.300;2023-07-22T12:20:14;100815.84;;;23.70;35.93
17593;BME280;8915;51.760;14.300;2023-07-22T12:22:41;100818.59;;;23.67;36.91
17593;BME280;8915;51.760;14.300;2023-07-22T12:25:10;100807.09;;;23.63;36.70
17593;BME280;8915;51.760;14.300;2023-07-22T12:27:37;100814.34;;;23.65;36.37
17593;BME280;8915;51.760;14.300;2023-07-22T12:30:04;100805.34;;;23.75;37.09
17593;BME280;8915;51.760;14.300;2023-07-22T12:32:33;100807.84;;;23.90;35.92
17593;BME280;8915;51.760;14.300;2023-07-22T12:34:59;100808.34;;;24.08;37.53
17593;BME280;8915;51.760;14.300;2023-07-22T12:37:26;100809.59;;;24.23;37.29
17593;BME280;8915;51.760;14.300;2023-07-22T12:39:53;100798.41;;;24.24;35.35
17593;BME280;8915;51.760;14.300;2023-07-22T12:42:21;100801.09;;;24.24;35.63
17593;BME280;8915;51.760;14.300;2023-07-22T12:44:48;100812.72;;;24.21;36.28
17593;BME280;8915;51.760;14.300;2023-07-22T12:47:14;100802.34;;;24.20;36.61
17593;BME280;8915;51.760;14.300;2023-07-22T12:49:41;100799.56;;;24.23;36.99
17593;BME280;8915;51.760;14.300;2023-07-22T12:52:10;100799.19;;;24.25;36.74
17593;BME280;8915;51.760;14.300;2023-07-22T12:54:37;100803.16;;;24.17;35.50
17593;BME280;8915;51.760;14.300;2023-07-22T12:57:04;100805.28;;;24.29;35.97
17593;BME280;8915;51.760;14.300;2023-07-22T12:59:32;100809.56;;;24.26;36.26
17593;BME280;8915;51.760;14.300;2023-07-22T13:01:59;100802.16;;;24.30;35.54
17593;BME280;8915;51.760;14.300;2023-07-22T13:04:25;100808.25;;;24.34;36.09
17593;BME280;8915;51.760;14.300;2023-07-22T13:06:52;100800.09;;;24.38;36.49
17593;BME280;8915;51.760;14.300;2023-07-22T13:09:19;100808.13;;;24.41;35.95
17593;BME280;8915;51.760;14.300;2023-07-22T13:11:46;100800.94;;;24.35;34.61